createdAt,value
2018-11-13T00:01:48.358Z,13.52
2018-11-13T00:04:15.578Z,13.56
2018-11-13T00:06:42.930Z,13.56
2018-11-13T00:09:10.093Z,13.60
2018-11-13T00:11:37.508Z,13.63
2018-11-13T00:14:04.806Z,13.64
2018-11-13T00:16:32.053Z,13.65
2018-11-13T00:18:59.253Z,13.76
2018-11-13T00:21:26.500Z,13.74
2018-11-13T00:23:53.752Z,13.80
2018-11-13T00:26:20.996Z,13.78
2018-11-13T00:28:48.281Z,13.78
2018-11-13T00:31:15.518Z,13.84
2018-11-13T00:33:42.751Z,13.73
2018-11-13T00:36:10.004Z,13.71
2018-11-13T00:38:37.252Z,13.70
2018-11-13T00:41:05.358Z,13.71
2018-11-13T00:43:32.697Z,13.62
2018-11-13T00:46:00.021Z,13.64
2018-11-13T00:48:27.666Z,13.59
2018-11-13T00:50:54.540Z,13.61
2018-11-13T00:53:21.763Z,13.64
2018-11-13T00:55:49.050Z,13.62
2018-11-13T00:58:16.246Z,13.58
2018-11-13T01:00:43.527Z,13.60
2018-11-13T01:03:10.769Z,13.57
2018-11-13T01:05:38.140Z,13.59
2018-11-13T01:08:05.544Z,13.69
2018-11-13T01:10:32.790Z,13.72
2018-11-13T01:13:00.045Z,13.65
2018-11-13T01:15:27.325Z,13.73
2018-11-13T01:17:54.506Z,13.70
2018-11-13T01:20:21.801Z,13.68
2018-11-13T01:22:49.072Z,13.68
2018-11-13T01:25:16.809Z,13.63
2018-11-13T01:27:44.528Z,13.64
2018-11-13T01:30:12.571Z,13.70
2018-11-13T01:32:40.762Z,13.69
2018-11-13T01:35:09.326Z,13.58
2018-11-13T01:37:36.643Z,13.56
2018-11-13T01:40:05.765Z,13.21
2018-11-13T01:42:36.065Z,13.34
2018-11-13T01:45:07.732Z,13.39
2018-11-13T01:47:35.053Z,13.37
2018-11-13T01:50:02.363Z,13.57
2018-11-13T01:52:29.691Z,13.47
2018-11-13T01:54:56.876Z,13.36
2018-11-13T01:57:24.147Z,13.34
2018-11-13T01:59:51.362Z,13.32
2018-11-13T02:02:18.607Z,13.24
2018-11-13T02:04:45.879Z,13.24
2018-11-13T02:07:13.160Z,13.20
2018-11-13T02:09:40.408Z,13.16
2018-11-13T02:12:08.658Z,13.22
2018-11-13T02:14:35.893Z,13.15
2018-11-13T02:17:03.165Z,13.06
2018-11-13T02:19:30.438Z,13.06
2018-11-13T02:21:57.683Z,13.02
2018-11-13T02:24:24.953Z,13.04
2018-11-13T02:26:52.158Z,12.92
2018-11-13T02:29:19.442Z,12.88
2018-11-13T02:31:46.676Z,12.80
2018-11-13T02:34:13.846Z,12.75
2018-11-13T02:36:41.141Z,12.70
2018-11-13T02:39:09.270Z,12.57
2018-11-13T02:41:36.595Z,12.60
2018-11-13T02:44:04.062Z,12.45
2018-11-13T02:46:31.391Z,12.42
2018-11-13T02:48:58.644Z,12.45
2018-11-13T02:51:25.885Z,12.58
2018-11-13T02:53:53.167Z,12.57
2018-11-13T02:56:20.379Z,12.54
2018-11-13T02:58:47.647Z,12.48
2018-11-13T03:01:14.896Z,12.41
2018-11-13T03:03:42.180Z,12.43
2018-11-13T03:06:09.371Z,12.47
2018-11-13T03:08:36.639Z,12.45
2018-11-13T03:11:04.029Z,12.38
2018-11-13T03:13:31.379Z,12.38
2018-11-13T03:15:58.661Z,12.40
2018-11-13T03:18:25.889Z,12.41
2018-11-13T03:20:53.084Z,12.41
2018-11-13T03:23:20.353Z,12.42
2018-11-13T03:25:47.567Z,12.45
2018-11-13T03:28:14.820Z,12.42
2018-11-13T03:30:42.081Z,12.42
2018-11-13T03:33:09.303Z,12.33
2018-11-13T03:35:36.540Z,12.41
2018-11-13T03:38:03.805Z,12.39
2018-11-13T03:40:31.161Z,12.45
2018-11-13T03:42:58.427Z,12.43
2018-11-13T03:45:25.671Z,12.44
2018-11-13T03:47:52.904Z,12.50
2018-11-13T03:50:21.193Z,12.56
2018-11-13T03:52:48.632Z,12.54
2018-11-13T03:55:16.433Z,12.58
2018-11-13T03:57:44.563Z,12.59
2018-11-13T04:00:13.589Z,12.58
2018-11-13T04:02:41.178Z,12.59
2018-11-13T04:05:10.168Z,12.63
2018-11-13T04:07:49.451Z,12.67
2018-11-13T04:10:17.630Z,12.58
2018-11-13T04:12:45.114Z,12.55
2018-11-13T04:15:13.460Z,12.50
2018-11-13T04:17:40.888Z,12.48
2018-11-13T04:20:10.932Z,12.48
2018-11-13T04:22:38.177Z,12.51
2018-11-13T04:25:05.646Z,12.55
2018-11-13T04:27:32.878Z,12.57
2018-11-13T04:30:00.167Z,12.47
2018-11-13T04:32:27.431Z,12.30
2018-11-13T04:34:54.651Z,12.23
2018-11-13T04:37:21.879Z,12.14
2018-11-13T04:39:49.124Z,12.16
2018-11-13T04:42:16.479Z,12.17
2018-11-13T04:44:43.771Z,12.18
2018-11-13T04:47:11.116Z,12.22
2018-11-13T04:49:38.368Z,12.24
2018-11-13T04:52:05.812Z,12.11
2018-11-13T04:54:33.056Z,12.00
2018-11-13T04:57:00.330Z,11.98
2018-11-13T04:59:27.611Z,12.00
2018-11-13T05:01:55.025Z,12.06
2018-11-13T05:04:22.338Z,12.07
2018-11-13T05:06:49.544Z,11.99
2018-11-13T05:09:16.798Z,11.97
2018-11-13T05:11:44.164Z,11.96
2018-11-13T05:14:11.708Z,12.01
2018-11-13T05:16:38.978Z,12.02
2018-11-13T05:19:06.238Z,12.03
2018-11-13T05:21:33.566Z,12.01
2018-11-13T05:24:00.832Z,11.96
2018-11-13T05:26:28.111Z,11.90
2018-11-13T05:28:55.387Z,11.86
2018-11-13T05:31:22.669Z,11.86
2018-11-13T05:33:49.906Z,11.91
2018-11-13T05:36:17.096Z,11.86
2018-11-13T05:38:44.385Z,11.95
2018-11-13T05:41:11.653Z,11.93
2018-11-13T05:43:38.902Z,11.91
2018-11-13T05:46:06.152Z,11.88
2018-11-13T05:48:33.760Z,11.84
2018-11-13T05:51:01.097Z,11.78
2018-11-13T05:53:28.359Z,11.78
2018-11-13T05:55:55.638Z,11.75
2018-11-13T05:58:22.851Z,11.73
2018-11-13T06:00:50.110Z,11.72
2018-11-13T06:03:17.413Z,11.69
2018-11-13T06:05:44.798Z,11.68
2018-11-13T06:08:12.167Z,11.72
2018-11-13T06:10:39.445Z,11.74
2018-11-13T06:13:06.742Z,11.73
2018-11-13T06:15:33.985Z,11.72
2018-11-13T06:18:01.264Z,11.77
2018-11-13T06:20:28.434Z,11.88
2018-11-13T06:22:55.675Z,11.95
2018-11-13T06:25:22.888Z,11.83
2018-11-13T06:27:50.158Z,11.79
2018-11-13T06:30:19.794Z,11.66
2018-11-13T06:32:47.497Z,11.53
2018-11-13T06:35:14.709Z,11.42
2018-11-13T06:37:41.938Z,11.31
2018-11-13T06:40:09.628Z,11.24
2018-11-13T06:42:37.264Z,11.25
2018-11-13T06:45:05.800Z,11.30
2018-11-13T06:47:33.012Z,11.26
2018-11-13T06:50:00.260Z,11.25
2018-11-13T06:52:27.958Z,11.29
2018-11-13T06:56:06.860Z,11.28
2018-11-13T06:58:34.138Z,11.19
2018-11-13T07:01:01.412Z,11.28
2018-11-13T07:03:28.595Z,11.28
2018-11-13T07:05:55.864Z,11.17
2018-11-13T07:08:23.035Z,11.12
2018-11-13T07:10:50.402Z,11.24
2018-11-13T07:13:17.491Z,11.22
2018-11-13T07:15:44.819Z,11.25
2018-11-13T07:18:12.169Z,11.27
2018-11-13T07:20:39.385Z,11.24
2018-11-13T07:23:06.737Z,11.22
2018-11-13T07:25:34.091Z,11.21
2018-11-13T07:28:01.392Z,11.20
2018-11-13T07:30:28.663Z,11.14
2018-11-13T07:32:55.921Z,11.14
2018-11-13T07:35:23.286Z,11.16
2018-11-13T07:37:52.860Z,11.20
2018-11-13T07:40:20.332Z,11.26
2018-11-13T07:42:47.605Z,11.29
2018-11-13T07:45:15.209Z,11.32
2018-11-13T07:47:43.426Z,11.30
2018-11-13T07:50:11.346Z,11.29
2018-11-13T07:52:38.656Z,11.28
2018-11-13T07:55:06.653Z,11.19
2018-11-13T07:57:34.011Z,11.12
2018-11-13T08:00:01.245Z,11.05
2018-11-13T08:02:28.484Z,11.06
2018-11-13T08:04:55.685Z,11.11
2018-11-13T08:07:23.057Z,10.61
2018-11-13T08:09:50.275Z,11.05
2018-11-13T08:12:17.645Z,11.02
2018-11-13T08:14:45.144Z,11.04
2018-11-13T08:17:12.380Z,10.98
2018-11-13T08:19:39.603Z,10.97
2018-11-13T08:22:06.987Z,11.00
2018-11-13T08:24:34.248Z,11.03
2018-11-13T08:27:01.466Z,11.02
2018-11-13T08:29:28.722Z,10.94
2018-11-13T08:31:55.874Z,10.95
2018-11-13T08:34:23.107Z,10.91
2018-11-13T08:36:50.378Z,10.91
2018-11-13T08:39:17.695Z,10.85
2018-11-13T08:41:45.002Z,10.83
2018-11-13T08:44:12.315Z,10.80
2018-11-13T08:46:39.521Z,10.77
2018-11-13T08:49:06.938Z,10.77
2018-11-13T08:51:34.191Z,10.76
2018-11-13T08:54:01.473Z,10.73
2018-11-13T08:56:28.699Z,10.71
2018-11-13T08:58:55.978Z,10.68
2018-11-13T09:01:23.365Z,10.68
2018-11-13T09:03:50.608Z,10.65
2018-11-13T09:06:17.992Z,10.65
2018-11-13T09:08:45.236Z,10.66
2018-11-13T09:11:12.534Z,10.65
2018-11-13T09:13:39.693Z,10.67
2018-11-13T09:16:07.001Z,10.71
2018-11-13T09:18:34.238Z,10.70
2018-11-13T09:21:01.480Z,10.77
2018-11-13T09:23:28.726Z,10.78
2018-11-13T09:25:55.970Z,10.93
2018-11-13T09:28:23.238Z,10.97
2018-11-13T09:30:50.826Z,11.08
2018-11-13T09:33:17.731Z,11.20
2018-11-13T09:35:44.993Z,11.19
2018-11-13T09:38:12.270Z,11.29
2018-11-13T09:40:39.509Z,11.39
2018-11-13T09:43:06.748Z,11.37
2018-11-13T09:45:34.022Z,11.31
2018-11-13T09:48:01.281Z,11.19
2018-11-13T09:50:28.550Z,11.18
2018-11-13T09:52:55.729Z,11.19
2018-11-13T09:55:23.235Z,11.21
2018-11-13T09:57:50.594Z,11.21
2018-11-13T10:00:20.633Z,11.24
2018-11-13T10:02:49.753Z,11.22
2018-11-13T10:05:17.443Z,11.18
2018-11-13T10:07:45.044Z,11.22
2018-11-13T10:10:12.329Z,11.20
2018-11-13T10:12:39.549Z,10.65
2018-11-13T10:15:10.044Z,11.12
2018-11-13T10:17:37.791Z,11.04
2018-11-13T10:20:05.235Z,10.98
2018-11-13T10:22:32.454Z,10.98
2018-11-13T10:24:59.730Z,10.98
2018-11-13T10:27:26.900Z,10.96
2018-11-13T10:29:54.081Z,10.96
2018-11-13T10:32:21.405Z,10.94
2018-11-13T10:34:48.691Z,10.99
2018-11-13T10:37:15.976Z,10.99
2018-11-13T10:39:43.303Z,11.02
2018-11-13T10:42:10.502Z,11.06
2018-11-13T10:44:37.797Z,11.10
2018-11-13T10:47:05.097Z,11.06
2018-11-13T10:49:32.405Z,11.13
2018-11-13T10:51:59.682Z,11.05
2018-11-13T10:54:26.858Z,11.06
2018-11-13T10:56:54.106Z,11.10
2018-11-13T10:59:21.346Z,11.07
2018-11-13T11:01:54.270Z,11.10
2018-11-13T11:04:27.382Z,11.20
2018-11-13T11:06:54.571Z,11.21
2018-11-13T11:09:21.803Z,11.25
2018-11-13T11:11:49.031Z,11.32
2018-11-13T11:14:16.297Z,11.34
2018-11-13T11:16:43.476Z,11.41
2018-11-13T11:19:10.970Z,11.43
2018-11-13T11:21:38.177Z,11.57
2018-11-13T11:24:05.488Z,11.65
2018-11-13T11:26:32.804Z,11.67
2018-11-13T11:28:59.977Z,11.71
2018-11-13T11:31:27.234Z,11.76
2018-11-13T11:33:54.436Z,11.75
2018-11-13T11:36:21.669Z,11.66
2018-11-13T11:38:49.039Z,11.69
2018-11-13T11:41:16.187Z,11.67
2018-11-13T11:43:43.372Z,11.63
2018-11-13T11:46:10.658Z,11.63
2018-11-13T11:48:37.896Z,11.64
2018-11-13T11:51:05.210Z,11.70
2018-11-13T11:53:32.391Z,11.63
2018-11-13T11:55:59.687Z,11.60
2018-11-13T11:58:26.921Z,11.59
2018-11-13T12:00:54.119Z,11.66
2018-11-13T12:03:21.327Z,11.74
2018-11-13T12:05:48.563Z,11.77
2018-11-13T12:08:15.766Z,11.87
2018-11-13T12:10:43.052Z,11.96
2018-11-13T12:13:10.346Z,12.07
2018-11-13T12:15:37.631Z,12.12
2018-11-13T12:18:05.347Z,12.36
2018-11-13T12:20:32.584Z,12.42
2018-11-13T12:22:59.834Z,12.55
2018-11-13T12:25:27.036Z,12.53
2018-11-13T12:27:54.306Z,12.49
2018-11-13T12:30:22.764Z,12.41
2018-11-13T12:32:50.686Z,12.45
2018-11-13T12:35:18.915Z,12.54
2018-11-13T12:37:46.333Z,12.68
2018-11-13T12:40:14.925Z,12.78
2018-11-13T12:42:42.929Z,12.80
2018-11-13T12:45:10.524Z,12.71
2018-11-13T12:47:37.967Z,12.51
2018-11-13T12:50:06.545Z,12.46
2018-11-13T12:52:33.768Z,12.49
2018-11-13T12:55:01.037Z,12.38
2018-11-13T12:57:28.278Z,12.32
2018-11-13T12:59:55.622Z,12.32
2018-11-13T13:02:22.934Z,12.29
2018-11-13T13:04:50.136Z,12.40
2018-11-13T13:07:17.374Z,12.50
2018-11-13T13:09:44.610Z,12.57
2018-11-13T13:12:11.846Z,12.41
2018-11-13T13:14:39.196Z,12.41
2018-11-13T13:17:06.670Z,12.39
2018-11-13T13:19:33.912Z,12.30
2018-11-13T13:22:01.280Z,12.29
2018-11-13T13:24:28.542Z,12.20
2018-11-13T13:26:55.835Z,12.18
2018-11-13T13:29:23.077Z,12.06
2018-11-13T13:31:50.407Z,11.96
2018-11-13T13:34:17.590Z,11.85
2018-11-13T13:36:44.845Z,11.84
2018-11-13T13:39:12.120Z,11.86
2018-11-13T13:41:39.370Z,11.82
2018-11-13T13:44:07.073Z,11.76
2018-11-13T13:46:34.517Z,11.77
2018-11-13T13:49:01.795Z,11.73
2018-11-13T13:51:28.989Z,11.76
2018-11-13T13:53:56.404Z,11.77
2018-11-13T13:56:23.510Z,11.93
2018-11-13T13:58:50.718Z,11.90
2018-11-13T14:01:18.022Z,11.95
2018-11-13T14:03:45.304Z,12.34
2018-11-13T14:06:12.604Z,12.61
2018-11-13T14:08:39.835Z,12.88
2018-11-13T14:11:07.031Z,13.13
2018-11-13T14:13:34.371Z,12.86
2018-11-13T14:16:01.629Z,12.62
2018-11-13T14:18:28.886Z,12.52
2018-11-13T14:20:56.198Z,12.72
2018-11-13T14:23:23.389Z,12.99
2018-11-13T14:25:50.722Z,12.68
2018-11-13T14:28:17.989Z,12.55
2018-11-13T14:30:45.230Z,12.30
2018-11-13T14:33:12.824Z,12.23
2018-11-13T14:35:40.185Z,12.19
2018-11-13T14:38:07.347Z,12.09
2018-11-13T14:40:38.010Z,12.06
2018-11-13T14:43:05.287Z,11.95
2018-11-13T14:45:32.625Z,11.95
2018-11-13T14:48:00.030Z,11.91
2018-11-13T14:50:28.572Z,11.88
2018-11-13T14:52:56.009Z,11.84
2018-11-13T14:55:26.451Z,11.83
2018-11-13T14:57:54.080Z,11.86
2018-11-13T15:00:22.743Z,11.75
2018-11-13T15:02:50.604Z,11.71
2018-11-13T15:05:19.048Z,11.85
2018-11-13T15:07:47.448Z,11.91
2018-11-13T15:10:16.806Z,11.85
2018-11-13T15:12:44.108Z,11.75
2018-11-13T15:15:11.676Z,11.68
2018-11-13T15:17:39.590Z,11.61
2018-11-13T15:20:09.129Z,11.55
2018-11-13T15:22:36.399Z,11.56
2018-11-13T15:25:04.330Z,11.70
2018-11-13T15:27:31.603Z,11.74
2018-11-13T15:29:58.877Z,11.72
2018-11-13T15:32:26.102Z,11.67
2018-11-13T15:34:53.361Z,11.53
2018-11-13T15:37:20.580Z,11.57
2018-11-13T15:39:47.857Z,11.58
2018-11-13T15:42:15.056Z,11.61
2018-11-13T15:44:42.438Z,11.62
2018-11-13T15:47:09.726Z,11.66
2018-11-13T15:49:37.277Z,11.67
2018-11-13T15:52:04.602Z,11.67
2018-11-13T15:54:31.787Z,11.62
2018-11-13T15:56:59.034Z,11.60
2018-11-13T15:59:26.248Z,11.60
2018-11-13T16:01:53.496Z,11.61
2018-11-13T16:04:20.733Z,11.35
2018-11-13T16:06:47.986Z,11.32
2018-11-13T16:09:15.297Z,11.16
2018-11-13T16:11:42.533Z,10.98
2018-11-13T16:14:10.461Z,10.85
2018-11-13T16:16:37.678Z,10.78
2018-11-13T16:19:04.980Z,10.73
2018-11-13T16:21:32.254Z,10.61
2018-11-13T16:23:59.561Z,10.45
2018-11-13T16:26:26.798Z,10.33
2018-11-13T16:28:53.987Z,10.25
2018-11-13T16:31:21.295Z,10.29
2018-11-13T16:33:48.569Z,10.38
2018-11-13T16:36:16.281Z,10.46
2018-11-13T16:38:43.429Z,10.47
2018-11-13T16:41:10.750Z,10.42
2018-11-13T16:43:37.972Z,10.38
2018-11-13T16:46:05.731Z,10.30
2018-11-13T16:48:33.070Z,10.29
2018-11-13T16:51:00.349Z,10.27
2018-11-13T16:53:27.782Z,10.23
2018-11-13T16:55:56.047Z,10.19
2018-11-13T16:58:23.285Z,10.21
2018-11-13T17:00:50.513Z,10.24
2018-11-13T17:03:17.714Z,10.30
2018-11-13T17:05:45.131Z,10.35
2018-11-13T17:08:12.222Z,10.23
2018-11-13T17:10:40.657Z,10.11
2018-11-13T17:13:08.006Z,10.04
2018-11-13T17:15:35.283Z,10.04
2018-11-13T17:18:03.018Z,10.07
2018-11-13T17:20:30.355Z,10.13
2018-11-13T17:22:57.635Z,10.10
2018-11-13T17:25:28.241Z,10.13
2018-11-13T17:27:55.731Z,10.20
2018-11-13T17:30:26.715Z,10.15
2018-11-13T17:32:54.964Z,10.04
2018-11-13T17:35:25.933Z,10.00
2018-11-13T17:37:59.186Z,9.99
2018-11-13T17:40:27.795Z,9.83
2018-11-13T17:42:56.617Z,9.74
2018-11-13T17:45:26.417Z,9.67
2018-11-13T17:47:53.663Z,9.61
2018-11-13T17:50:23.129Z,9.64
2018-11-13T17:52:50.836Z,9.64
2018-11-13T17:55:24.062Z,9.74
2018-11-13T17:57:52.642Z,9.78
2018-11-13T18:00:22.317Z,9.72
2018-11-13T18:02:49.878Z,9.75
2018-11-13T18:05:18.346Z,9.78
2018-11-13T18:07:45.654Z,9.76
2018-11-13T18:10:13.042Z,9.71
2018-11-13T18:12:40.433Z,9.60
2018-11-13T18:15:10.566Z,9.55
2018-11-13T18:17:37.805Z,9.46
2018-11-13T18:20:07.134Z,9.50
2018-11-13T18:22:34.383Z,9.54
2018-11-13T18:25:04.521Z,9.55
2018-11-13T18:27:31.769Z,9.47
2018-11-13T18:29:59.027Z,9.32
2018-11-13T18:32:26.250Z,9.15
2018-11-13T18:34:54.789Z,9.13
2018-11-13T18:37:22.093Z,9.13
2018-11-13T18:39:49.262Z,9.07
2018-11-13T18:42:16.627Z,9.11
2018-11-13T18:44:44.045Z,9.13
2018-11-13T18:47:11.316Z,9.10
2018-11-13T18:49:38.658Z,9.08
2018-11-13T18:52:05.885Z,9.08
2018-11-13T18:54:33.089Z,9.05
2018-11-13T18:57:00.437Z,9.03
2018-11-13T18:59:27.654Z,8.99
2018-11-13T19:01:55.062Z,8.98
2018-11-13T19:04:22.412Z,7.29
2018-11-13T19:06:49.728Z,8.73
2018-11-13T19:09:17.029Z,8.63
2018-11-13T19:11:44.458Z,8.65
2018-11-13T19:14:12.162Z,8.64
2018-11-13T19:16:39.573Z,8.61
2018-11-13T19:19:07.036Z,8.56
2018-11-13T19:21:34.374Z,8.52
2018-11-13T19:24:01.749Z,8.48
2018-11-13T19:26:28.917Z,8.39
2018-11-13T19:28:56.110Z,8.41
2018-11-13T19:31:23.414Z,8.31
2018-11-13T19:33:50.650Z,8.24
2018-11-13T19:36:18.198Z,8.18
2018-11-13T19:38:45.485Z,8.16
2018-11-13T19:41:12.735Z,8.12
2018-11-13T19:43:40.048Z,8.11
2018-11-13T19:46:07.428Z,8.14
2018-11-13T19:48:34.705Z,8.21
2018-11-13T19:51:01.924Z,8.22
2018-11-13T19:53:29.150Z,8.14
2018-11-13T19:55:56.404Z,8.17
2018-11-13T19:58:24.060Z,8.18
2018-11-13T20:00:51.319Z,8.13
2018-11-13T20:03:18.553Z,8.13
2018-11-13T20:05:45.865Z,7.95
2018-11-13T20:08:13.099Z,7.86
2018-11-13T20:10:40.576Z,7.82
2018-11-13T20:13:08.661Z,7.75
2018-11-13T20:15:36.475Z,7.70
2018-11-13T20:18:03.845Z,7.73
2018-11-13T20:20:32.237Z,7.66
2018-11-13T20:23:00.468Z,7.71
2018-11-13T20:25:30.052Z,7.72
2018-11-13T20:27:57.392Z,7.72
2018-11-13T20:30:27.052Z,7.65
2018-11-13T20:32:54.484Z,7.59
2018-11-13T20:35:21.698Z,7.60
2018-11-13T20:37:49.707Z,7.52
2018-11-13T20:40:21.311Z,7.54
2018-11-13T20:42:49.818Z,7.55
2018-11-13T20:45:17.137Z,7.45
2018-11-13T20:47:44.372Z,7.35
2018-11-13T20:50:14.044Z,7.36
2018-11-13T20:52:46.594Z,7.34
2018-11-13T20:55:18.905Z,7.36
2018-11-13T20:57:46.157Z,7.26
2018-11-13T21:00:15.541Z,7.24
2018-11-13T21:02:43.198Z,7.16
2018-11-13T21:05:10.509Z,7.16
2018-11-13T21:07:37.976Z,7.11
2018-11-13T21:10:08.674Z,7.12
2018-11-13T21:12:35.991Z,7.01
2018-11-13T21:15:04.510Z,6.68
2018-11-13T21:17:32.107Z,6.91
2018-11-13T21:19:59.375Z,7.01
2018-11-13T21:22:26.721Z,6.96
2018-11-13T21:25:01.237Z,6.93
2018-11-13T21:27:28.972Z,6.91
2018-11-13T21:29:56.507Z,6.84
2018-11-13T21:32:23.774Z,6.82
2018-11-13T21:34:51.097Z,6.82
2018-11-13T21:37:18.567Z,6.80
2018-11-13T21:39:47.125Z,6.76
2018-11-13T21:42:14.456Z,6.76
2018-11-13T21:44:41.758Z,6.79
2018-11-13T21:47:09.165Z,6.82
2018-11-13T21:49:36.575Z,6.74
2018-11-13T21:52:04.012Z,6.66
2018-11-13T21:54:31.431Z,6.64
2018-11-13T21:56:58.721Z,6.64
2018-11-13T21:59:26.014Z,6.65
2018-11-13T22:01:56.766Z,6.69
2018-11-13T22:04:24.084Z,6.60
2018-11-13T22:06:51.448Z,6.56
2018-11-13T22:09:18.707Z,6.58
2018-11-13T22:11:45.994Z,6.53
2018-11-13T22:14:13.285Z,6.48
2018-11-13T22:16:40.719Z,6.38
2018-11-13T22:19:12.961Z,6.40
2018-11-13T22:21:40.277Z,6.33
2018-11-13T22:24:07.593Z,6.28
2018-11-13T22:26:34.912Z,6.19
2018-11-13T22:29:02.242Z,6.25
2018-11-13T22:31:29.839Z,6.23
2018-11-13T22:33:56.940Z,6.26
2018-11-13T22:36:24.302Z,6.20
2018-11-13T22:38:51.629Z,6.22
2018-11-13T22:41:18.905Z,6.19
2018-11-13T22:43:46.168Z,6.22
2018-11-13T22:46:13.510Z,6.15
2018-11-13T22:48:40.783Z,6.12
2018-11-13T22:51:08.043Z,6.14
2018-11-13T22:53:35.294Z,6.19
2018-11-13T22:56:02.614Z,5.90
2018-11-13T22:58:30.239Z,6.14
2018-11-13T23:00:57.268Z,6.05
2018-11-13T23:03:24.554Z,6.07
2018-11-13T23:05:51.831Z,6.17
2018-11-13T23:08:20.159Z,6.14
2018-11-13T23:10:48.434Z,6.11
2018-11-13T23:13:15.731Z,6.07
2018-11-13T23:15:43.046Z,5.88
2018-11-13T23:18:10.323Z,5.98
2018-11-13T23:20:37.686Z,5.99
2018-11-13T23:23:05.265Z,5.98
2018-11-13T23:25:32.536Z,5.97
2018-11-13T23:27:59.903Z,5.90
2018-11-13T23:30:27.779Z,5.73
2018-11-13T23:32:55.815Z,5.55
2018-11-13T23:35:23.966Z,5.31
2018-11-13T23:37:53.455Z,5.59
2018-11-13T23:40:21.974Z,5.57
2018-11-13T23:42:49.594Z,5.60
2018-11-13T23:45:17.986Z,3.64
2018-11-13T23:47:46.030Z,5.57
2018-11-13T23:50:13.412Z,5.55
2018-11-13T23:52:40.924Z,5.49
2018-11-13T23:55:09.430Z,5.51
2018-11-13T23:57:36.844Z,5.41
